sensor_id;sensor_type;location;lat;lon;timestamp;temperature;humidity
9666;DHT22;4871;52.004;5.924;2022-11-20T00:00:00;-0.2;76.8
9666;DHT22;4871;52.004;5.924;2022-11-20T00:01:13;-0.2;76.8
9666;DHT22;4871;52.004;5.924;2022-11-20T00:02:00;-0.2;76.8
9666;DHT22;4871;52.004;5.924;2022-11-20T00:03:00;-0.2;76.8
9666;DHT22;4871;52.004;5.924;2022-11-20T00:04:00;-0.3;77.0
9666;DHT22;4871;52.004;5.924;2022-11-20T00:05:00;-0.3;77.0
9666;DHT22;4871;52.004;5.924;2022-11-20T00:06:01;-0.3;77.0
9666;DHT22;4871;52.004;5.924;2022-11-20T00:07:00;-0.3;77.1
9666;DHT22;4871;52.004;5.924;2022-11-20T00:08:00;-0.3;77.0
9666;DHT22;4871;52.004;5.924;2022-11-20T00:09:01;-0.3;76.9
9666;DHT22;4871;52.004;5.924;2022-11-20T00:10:00;-0.3;77.2
9666;DHT22;4871;52.004;5.924;2022-11-20T00:11:04;-0.3;76.8
9666;DHT22;4871;52.004;5.924;2022-11-20T00:12:00;-0.3;77.1
9666;DHT22;4871;52.004;5.924;2022-11-20T00:13:00;-0.3;76.8
9666;DHT22;4871;52.004;5.924;2022-11-20T00:14:01;-0.3;76.9
9666;DHT22;4871;52.004;5.924;2022-11-20T00:15:00;-0.3;76.9
9666;DHT22;4871;52.004;5.924;2022-11-20T00:16:04;-0.3;77.1
9666;DHT22;4871;52.004;5.924;2022-11-20T00:17:00;-0.3;76.9
9666;DHT22;4871;52.004;5.924;2022-11-20T00:18:00;-0.3;76.9
9666;DHT22;4871;52.004;5.924;2022-11-20T00:19:00;-0.3;76.9
9666;DHT22;4871;52.004;5.924;2022-11-20T00:20:00;-0.4;76.9
9666;DHT22;4871;52.004;5.924;2022-11-20T00:22:00;-0.4;76.9
9666;DHT22;4871;52.004;5.924;2022-11-20T00:23:00;-0.4;77.0
9666;DHT22;4871;52.004;5.924;2022-11-20T00:24:00;-0.4;77.0
9666;DHT22;4871;52.004;5.924;2022-11-20T00:25:00;-0.4;77.0
9666;DHT22;4871;52.004;5.924;2022-11-20T00:26:03;-0.4;77.0
9666;DHT22;4871;52.004;5.924;2022-11-20T00:27:00;-0.4;77.0
9666;DHT22;4871;52.004;5.924;2022-11-20T00:28:00;-0.4;76.7
9666;DHT22;4871;52.004;5.924;2022-11-20T00:29:00;-0.4;76.9
9666;DHT22;4871;52.004;5.924;2022-11-20T00:30:00;-0.4;76.6
9666;DHT22;4871;52.004;5.924;2022-11-20T00:31:05;-0.5;77.0
9666;DHT22;4871;52.004;5.924;2022-11-20T00:32:00;-0.5;76.9
9666;DHT22;4871;52.004;5.924;2022-11-20T00:33:00;-0.5;77.1
9666;DHT22;4871;52.004;5.924;2022-11-20T00:34:00;-0.4;77.0
9666;DHT22;4871;52.004;5.924;2022-11-20T00:35:00;-0.5;77.0
9666;DHT22;4871;52.004;5.924;2022-11-20T00:36:01;-0.5;77.1
9666;DHT22;4871;52.004;5.924;2022-11-20T00:37:00;-0.5;76.9
9666;DHT22;4871;52.004;5.924;2022-11-20T00:38:00;-0.5;76.8
9666;DHT22;4871;52.004;5.924;2022-11-20T00:39:00;-0.5;77.1
9666;DHT22;4871;52.004;5.924;2022-11-20T00:40:00;-0.5;77.1
9666;DHT22;4871;52.004;5.924;2022-11-20T00:41:01;-0.5;77.0
9666;DHT22;4871;52.004;5.924;2022-11-20T00:42:00;-0.5;77.1
9666;DHT22;4871;52.004;5.924;2022-11-20T00:43:00;-0.5;77.0
9666;DHT22;4871;52.004;5.924;2022-11-20T00:44:00;-0.5;77.0
9666;DHT22;4871;52.004;5.924;2022-11-20T00:45:00;-0.5;77.0
9666;DHT22;4871;52.004;5.924;2022-11-20T00:46:01;-0.5;76.8
9666;DHT22;4871;52.004;5.924;2022-11-20T00:47:00;-0.5;77.0
9666;DHT22;4871;52.004;5.924;2022-11-20T00:48:00;-0.6;76.8
9666;DHT22;4871;52.004;5.924;2022-11-20T00:49:00;-0.6;77.1
9666;DHT22;4871;52.004;5.924;2022-11-20T00:50:00;-0.5;77.0
9666;DHT22;4871;52.004;5.924;2022-11-20T00:51:00;-0.6;77.0
9666;DHT22;4871;52.004;5.924;2022-11-20T00:52:00;-0.6;77.0
9666;DHT22;4871;52.004;5.924;2022-11-20T00:53:00;-0.6;76.9
9666;DHT22;4871;52.004;5.924;2022-11-20T00:54:01;-0.6;77.1
9666;DHT22;4871;52.004;5.924;2022-11-20T00:55:00;-0.6;77.0
9666;DHT22;4871;52.004;5.924;2022-11-20T00:56:03;-0.6;77.0
9666;DHT22;4871;52.004;5.924;2022-11-20T00:57:00;-0.6;77.0
9666;DHT22;4871;52.004;5.924;2022-11-20T00:58:00;-0.6;77.1
9666;DHT22;4871;52.004;5.924;2022-11-20T00:59:00;-0.6;76.9
9666;DHT22;4871;52.004;5.924;2022-11-20T01:00:00;-0.6;76.9
9666;DHT22;4871;52.004;5.924;2022-11-20T01:01:02;-0.6;76.9
9666;DHT22;4871;52.004;5.924;2022-11-20T01:02:00;-0.6;77.0
9666;DHT22;4871;52.004;5.924;2022-11-20T01:03:00;-0.6;76.8
9666;DHT22;4871;52.004;5.924;2022-11-20T01:04:00;-0.6;77.0
9666;DHT22;4871;52.004;5.924;2022-11-20T01:05:00;-0.7;77.1
9666;DHT22;4871;52.004;5.924;2022-11-20T01:06:01;-0.6;77.1
9666;DHT22;4871;52.004;5.924;2022-11-20T01:07:00;-0.7;77.2
9666;DHT22;4871;52.004;5.924;2022-11-20T01:08:00;-0.7;77.2
9666;DHT22;4871;52.004;5.924;2022-11-20T01:09:03;-0.7;77.0
9666;DHT22;4871;52.004;5.924;2022-11-20T01:10:00;-0.6;77.0
9666;DHT22;4871;52.004;5.924;2022-11-20T01:11:01;-0.6;76.9
9666;DHT22;4871;52.004;5.924;2022-11-20T01:12:00;-0.7;77.0
9666;DHT22;4871;52.004;5.924;2022-11-20T01:13:10;-0.6;76.9
9666;DHT22;4871;52.004;5.924;2022-11-20T01:14:02;-0.6;76.8
9666;DHT22;4871;52.004;5.924;2022-11-20T01:15:00;-0.7;76.9
9666;DHT22;4871;52.004;5.924;2022-11-20T01:16:02;-0.7;76.9
9666;DHT22;4871;52.004;5.924;2022-11-20T01:17:00;-0.7;76.6
9666;DHT22;4871;52.004;5.924;2022-11-20T01:18:00;-0.7;76.9
9666;DHT22;4871;52.004;5.924;2022-11-20T01:19:02;-0.7;76.8
9666;DHT22;4871;52.004;5.924;2022-11-20T01:20:00;-0.7;77.1
9666;DHT22;4871;52.004;5.924;2022-11-20T01:21:03;-0.7;76.8
9666;DHT22;4871;52.004;5.924;2022-11-20T01:22:00;-0.7;76.9
9666;DHT22;4871;52.004;5.924;2022-11-20T01:23:00;-0.7;77.0
9666;DHT22;4871;52.004;5.924;2022-11-20T01:24:01;-0.8;76.7
9666;DHT22;4871;52.004;5.924;2022-11-20T01:25:00;-0.8;77.0
9666;DHT22;4871;52.004;5.924;2022-11-20T01:26:02;-0.7;76.6
9666;DHT22;4871;52.004;5.924;2022-11-20T01:27:00;-0.7;76.8
9666;DHT22;4871;52.004;5.924;2022-11-20T01:28:00;-0.8;76.8
9666;DHT22;4871;52.004;5.924;2022-11-20T01:29:00;-0.8;77.2
9666;DHT22;4871;52.004;5.924;2022-11-20T01:30:00;-0.8;77.1
9666;DHT22;4871;52.004;5.924;2022-11-20T01:31:00;-0.8;76.9
9666;DHT22;4871;52.004;5.924;2022-11-20T01:32:00;-0.8;76.9
9666;DHT22;4871;52.004;5.924;2022-11-20T01:33:00;-0.8;76.9
9666;DHT22;4871;52.004;5.924;2022-11-20T01:34:02;-0.8;76.7
9666;DHT22;4871;52.004;5.924;2022-11-20T01:35:00;-0.8;76.9
9666;DHT22;4871;52.004;5.924;2022-11-20T01:36:03;-0.8;76.7
9666;DHT22;4871;52.004;5.924;2022-11-20T01:37:00;-0.8;76.9
9666;DHT22;4871;52.004;5.924;2022-11-20T01:38:00;-0.8;76.9
9666;DHT22;4871;52.004;5.924;2022-11-20T01:39:03;-0.8;76.8
9666;DHT22;4871;52.004;5.924;2022-11-20T01:40:00;-0.8;76.8
9666;DHT22;4871;52.004;5.924;2022-11-20T01:41:00;-0.8;77.0
9666;DHT22;4871;52.004;5.924;2022-11-20T01:42:10;-0.8;76.9
9666;DHT22;4871;52.004;5.924;2022-11-20T01:43:14;-0.9;77.0
9666;DHT22;4871;52.004;5.924;2022-11-20T01:44:00;-0.9;77.2
9666;DHT22;4871;52.004;5.924;2022-11-20T01:45:00;-0.9;77.1
9666;DHT22;4871;52.004;5.924;2022-11-20T01:47:04;-0.9;77.0
9666;DHT22;4871;52.004;5.924;2022-11-20T01:48:00;-0.9;77.1
9666;DHT22;4871;52.004;5.924;2022-11-20T01:49:11;-0.9;77.0
9666;DHT22;4871;52.004;5.924;2022-11-20T01:50:18;-0.9;77.2
9666;DHT22;4871;52.004;5.924;2022-11-20T01:51:00;-0.9;77.0
9666;DHT22;4871;52.004;5.924;2022-11-20T01:52:03;-0.9;76.9
9666;DHT22;4871;52.004;5.924;2022-11-20T01:53:03;-0.9;77.0
9666;DHT22;4871;52.004;5.924;2022-11-20T01:54:03;-0.9;77.0
9666;DHT22;4871;52.004;5.924;2022-11-20T01:55:03;-1.0;77.1
9666;DHT22;4871;52.004;5.924;2022-11-20T01:56:01;-0.9;76.9
9666;DHT22;4871;52.004;5.924;2022-11-20T01:57:00;-0.9;76.9
9666;DHT22;4871;52.004;5.924;2022-11-20T01:58:01;-0.9;77.1
9666;DHT22;4871;52.004;5.924;2022-11-20T01:59:01;-1.0;77.0
9666;DHT22;4871;52.004;5.924;2022-11-20T02:00:04;-1.0;77.2
9666;DHT22;4871;52.004;5.924;2022-11-20T02:01:00;-1.0;77.0
9666;DHT22;4871;52.004;5.924;2022-11-20T02:02:00;-1.0;77.1
9666;DHT22;4871;52.004;5.924;2022-11-20T02:03:03;-1.0;77.1
9666;DHT22;4871;52.004;5.924;2022-11-20T02:04:00;-1.0;77.0
9666;DHT22;4871;52.004;5.924;2022-11-20T02:05:20;-1.0;77.0
9666;DHT22;4871;52.004;5.924;2022-11-20T02:06:12;-0.9;76.8
9666;DHT22;4871;52.004;5.924;2022-11-20T02:07:01;-1.0;76.9
9666;DHT22;4871;52.004;5.924;2022-11-20T02:08:01;-1.0;76.9
9666;DHT22;4871;52.004;5.924;2022-11-20T02:09:00;-1.0;77.1
9666;DHT22;4871;52.004;5.924;2022-11-20T02:10:00;-1.0;77.1
9666;DHT22;4871;52.004;5.924;2022-11-20T02:11:00;-1.0;77.0
9666;DHT22;4871;52.004;5.924;2022-11-20T02:12:00;-1.0;77.2
9666;DHT22;4871;52.004;5.924;2022-11-20T02:13:10;-1.1;76.9
9666;DHT22;4871;52.004;5.924;2022-11-20T02:14:00;-1.0;76.9
9666;DHT22;4871;52.004;5.924;2022-11-20T02:15:00;-1.0;76.9
9666;DHT22;4871;52.004;5.924;2022-11-20T02:16:00;-1.1;77.1
9666;DHT22;4871;52.004;5.924;2022-11-20T02:17:00;-1.0;76.9
9666;DHT22;4871;52.004;5.924;2022-11-20T02:18:00;-1.1;76.9
9666;DHT22;4871;52.004;5.924;2022-11-20T02:19:01;-1.1;76.9
9666;DHT22;4871;52.004;5.924;2022-11-20T02:20:00;-1.1;77.0
9666;DHT22;4871;52.004;5.924;2022-11-20T02:21:09;-1.1;76.9
9666;DHT22;4871;52.004;5.924;2022-11-20T02:22:04;-1.1;76.9
9666;DHT22;4871;52.004;5.924;2022-11-20T02:23:08;-1.1;76.7
9666;DHT22;4871;52.004;5.924;2022-11-20T02:24:11;-1.1;77.2
9666;DHT22;4871;52.004;5.924;2022-11-20T02:25:01;-1.1;77.1
9666;DHT22;4871;52.004;5.924;2022-11-20T02:26:02;-1.1;77.1
9666;DHT22;4871;52.004;5.924;2022-11-20T02:27:02;-1.1;77.1
9666;DHT22;4871;52.004;5.924;2022-11-20T02:28:00;-1.1;77.0
9666;DHT22;4871;52.004;5.924;2022-11-20T02:29:02;-1.1;77.1
9666;DHT22;4871;52.004;5.924;2022-11-20T02:30:02;-1.1;76.9
9666;DHT22;4871;52.004;5.924;2022-11-20T02:31:00;-1.1;76.8
9666;DHT22;4871;52.004;5.924;2022-11-20T02:32:00;-1.1;77.0
9666;DHT22;4871;52.004;5.924;2022-11-20T02:33:00;-1.1;77.0
9666;DHT22;4871;52.004;5.924;2022-11-20T02:34:00;-1.1;77.1
9666;DHT22;4871;52.004;5.924;2022-11-20T02:35:40;-1.2;77.2
9666;DHT22;4871;52.004;5.924;2022-11-20T02:36:00;-1.2;77.2
9666;DHT22;4871;52.004;5.924;2022-11-20T02:37:00;-1.1;77.0
9666;DHT22;4871;52.004;5.924;2022-11-20T02:38:02;-1.2;77.1
9666;DHT22;4871;52.004;5.924;2022-11-20T02:39:00;-1.1;77.0
9666;DHT22;4871;52.004;5.924;2022-11-20T02:40:00;-1.1;77.0
9666;DHT22;4871;52.004;5.924;2022-11-20T02:41:00;-1.2;76.6
9666;DHT22;4871;52.004;5.924;2022-11-20T02:42:00;-1.2;76.9
9666;DHT22;4871;52.004;5.924;2022-11-20T02:43:00;-1.2;77.0
9666;DHT22;4871;52.004;5.924;2022-11-20T02:44:00;-1.2;76.9
9666;DHT22;4871;52.004;5.924;2022-11-20T02:45:00;-1.2;76.9
9666;DHT22;4871;52.004;5.924;2022-11-20T02:46:00;-1.2;76.9
9666;DHT22;4871;52.004;5.924;2022-11-20T02:47:00;-1.2;76.8
9666;DHT22;4871;52.004;5.924;2022-11-20T02:48:00;-1.2;77.0
9666;DHT22;4871;52.004;5.924;2022-11-20T02:49:01;-1.2;76.8
9666;DHT22;4871;52.004;5.924;2022-11-20T02:50:00;-1.2;76.7
9666;DHT22;4871;52.004;5.924;2022-11-20T02:51:00;-1.2;77.1
9666;DHT22;4871;52.004;5.924;2022-11-20T02:52:00;-1.2;76.9
9666;DHT22;4871;52.004;5.924;2022-11-20T02:53:00;-1.2;77.1
9666;DHT22;4871;52.004;5.924;2022-11-20T02:54:00;-1.2;76.8
9666;DHT22;4871;52.004;5.924;2022-11-20T02:55:00;-1.2;77.0
9666;DHT22;4871;52.004;5.924;2022-11-20T02:56:00;-1.3;76.9
9666;DHT22;4871;52.004;5.924;2022-11-20T02:57:00;-1.3;77.1
9666;DHT22;4871;52.004;5.924;2022-11-20T02:58:00;-1.3;77.3
9666;DHT22;4871;52.004;5.924;2022-11-20T02:59:00;-1.3;77.0
9666;DHT22;4871;52.004;5.924;2022-11-20T03:00:00;-1.2;77.0
9666;DHT22;4871;52.004;5.924;2022-11-20T03:01:00;-1.2;76.9
9666;DHT22;4871;52.004;5.924;2022-11-20T03:02:00;-1.2;76.7
9666;DHT22;4871;52.004;5.924;2022-11-20T03:03:00;-1.3;77.0
9666;DHT22;4871;52.004;5.924;2022-11-20T03:04:00;-1.3;77.1
9666;DHT22;4871;52.004;5.924;2022-11-20T03:05:00;-1.3;77.1
9666;DHT22;4871;52.004;5.924;2022-11-20T03:06:00;-1.3;76.9
9666;DHT22;4871;52.004;5.924;2022-11-20T03:07:00;-1.3;76.8
9666;DHT22;4871;52.004;5.924;2022-11-20T03:08:00;-1.3;76.9
9666;DHT22;4871;52.004;5.924;2022-11-20T03:09:00;-1.3;76.9
9666;DHT22;4871;52.004;5.924;2022-11-20T03:10:00;-1.3;76.9
9666;DHT22;4871;52.004;5.924;2022-11-20T03:11:07;-1.3;76.7
9666;DHT22;4871;52.004;5.924;2022-11-20T03:12:00;-1.3;77.1
9666;DHT22;4871;52.004;5.924;2022-11-20T03:13:00;-1.4;77.1
9666;DHT22;4871;52.004;5.924;2022-11-20T03:14:02;-1.4;77.1
9666;DHT22;4871;52.004;5.924;2022-11-20T03:15:00;-1.3;76.9
9666;DHT22;4871;52.004;5.924;2022-11-20T03:16:10;-1.3;77.0
9666;DHT22;4871;52.004;5.924;2022-11-20T03:17:00;-1.4;77.0
9666;DHT22;4871;52.004;5.924;2022-11-20T03:18:00;-1.4;77.1
9666;DHT22;4871;52.004;5.924;2022-11-20T03:19:00;-1.3;76.9
9666;DHT22;4871;52.004;5.924;2022-11-20T03:20:00;-1.3;77.0
9666;DHT22;4871;52.004;5.924;2022-11-20T03:21:00;-1.3;76.9
9666;DHT22;4871;52.004;5.924;2022-11-20T03:22:00;-1.4;77.1
9666;DHT22;4871;52.004;5.924;2022-11-20T03:23:00;-1.4;76.7
9666;DHT22;4871;52.004;5.924;2022-11-20T03:24:00;-1.4;77.0
9666;DHT22;4871;52.004;5.924;2022-11-20T03:25:00;-1.4;77.0
9666;DHT22;4871;52.004;5.924;2022-11-20T03:26:11;-1.4;77.1
9666;DHT22;4871;52.004;5.924;2022-11-20T03:27:00;-1.4;77.0
9666;DHT22;4871;52.004;5.924;2022-11-20T03:28:00;-1.4;77.1
9666;DHT22;4871;52.004;5.924;2022-11-20T03:29:02;-1.4;77.0
9666;DHT22;4871;52.004;5.924;2022-11-20T03:30:00;-1.4;77.1
9666;DHT22;4871;52.004;5.924;2022-11-20T03:31:05;-1.4;76.9
9666;DHT22;4871;52.004;5.924;2022-11-20T03:32:00;-1.4;77.0
9666;DHT22;4871;52.004;5.924;2022-11-20T03:33:00;-1.4;77.0
9666;DHT22;4871;52.004;5.924;2022-11-20T03:34:00;-1.4;77.1
9666;DHT22;4871;52.004;5.924;2022-11-20T03:35:00;-1.4;77.1
9666;DHT22;4871;52.004;5.924;2022-11-20T03:36:03;-1.4;76.9
9666;DHT22;4871;52.004;5.924;2022-11-20T03:37:00;-1.4;77.0
9666;DHT22;4871;52.004;5.924;2022-11-20T03:38:00;-1.4;77.1
9666;DHT22;4871;52.004;5.924;2022-11-20T03:39:00;-1.4;77.1
9666;DHT22;4871;52.004;5.924;2022-11-20T03:40:00;-1.4;76.9
9666;DHT22;4871;52.004;5.924;2022-11-20T03:41:02;-1.4;77.1
9666;DHT22;4871;52.004;5.924;2022-11-20T03:42:00;-1.4;76.7
9666;DHT22;4871;52.004;5.924;2022-11-20T03:43:00;-1.4;76.9
9666;DHT22;4871;52.004;5.924;2022-11-20T03:44:03;-1.4;77.0
9666;DHT22;4871;52.004;5.924;2022-11-20T03:45:02;-1.5;77.0
9666;DHT22;4871;52.004;5.924;2022-11-20T03:46:00;-1.5;77.0
9666;DHT22;4871;52.004;5.924;2022-11-20T03:47:00;-1.4;76.8
9666;DHT22;4871;52.004;5.924;2022-11-20T03:48:00;-1.5;77.0
9666;DHT22;4871;52.004;5.924;2022-11-20T03:49:00;-1.5;77.0
9666;DHT22;4871;52.004;5.924;2022-11-20T03:50:00;-1.5;77.0
9666;DHT22;4871;52.004;5.924;2022-11-20T03:51:10;-1.5;77.1
9666;DHT22;4871;52.004;5.924;2022-11-20T03:52:00;-1.5;76.9
9666;DHT22;4871;52.004;5.924;2022-11-20T03:53:00;-1.5;77.0
9666;DHT22;4871;52.004;5.924;2022-11-20T03:54:04;-1.5;77.2
9666;DHT22;4871;52.004;5.924;2022-11-20T03:55:00;-1.5;77.1
9666;DHT22;4871;52.004;5.924;2022-11-20T03:56:00;-1.5;77.0
9666;DHT22;4871;52.004;5.924;2022-11-20T03:57:00;-1.5;76.9
9666;DHT22;4871;52.004;5.924;2022-11-20T03:58:00;-1.5;77.0
9666;DHT22;4871;52.004;5.924;2022-11-20T03:59:00;-1.5;77.0
9666;DHT22;4871;52.004;5.924;2022-11-20T04:00:00;-1.5;77.1
9666;DHT22;4871;52.004;5.924;2022-11-20T04:01:04;-1.5;77.1
9666;DHT22;4871;52.004;5.924;2022-11-20T04:02:00;-1.5;77.0
9666;DHT22;4871;52.004;5.924;2022-11-20T04:03:02;-1.5;77.1
9666;DHT22;4871;52.004;5.924;2022-11-20T04:04:00;-1.6;77.2
9666;DHT22;4871;52.004;5.924;2022-11-20T04:05:00;-1.5;77.0
9666;DHT22;4871;52.004;5.924;2022-11-20T04:06:07;-1.5;76.7
9666;DHT22;4871;52.004;5.924;2022-11-20T04:07:00;-1.5;76.9
9666;DHT22;4871;52.004;5.924;2022-11-20T04:08:00;-1.6;77.1
9666;DHT22;4871;52.004;5.924;2022-11-20T04:09:00;-1.6;77.1
9666;DHT22;4871;52.004;5.924;2022-11-20T04:10:00;-1.6;77.3
9666;DHT22;4871;52.004;5.924;2022-11-20T04:11:09;-1.6;77.2
9666;DHT22;4871;52.004;5.924;2022-11-20T04:12:00;-1.6;77.0
9666;DHT22;4871;52.004;5.924;2022-11-20T04:13:00;-1.6;77.1
9666;DHT22;4871;52.004;5.924;2022-11-20T04:14:02;-1.6;76.9
9666;DHT22;4871;52.004;5.924;2022-11-20T04:15:00;-1.6;77.1
9666;DHT22;4871;52.004;5.924;2022-11-20T04:16:00;-1.6;77.0
9666;DHT22;4871;52.004;5.924;2022-11-20T04:17:00;-1.6;76.8
9666;DHT22;4871;52.004;5.924;2022-11-20T04:18:00;-1.6;76.9
9666;DHT22;4871;52.004;5.924;2022-11-20T04:19:02;-1.6;77.0
9666;DHT22;4871;52.004;5.924;2022-11-20T04:20:00;-1.6;77.0
9666;DHT22;4871;52.004;5.924;2022-11-20T04:21:00;-1.6;77.0
9666;DHT22;4871;52.004;5.924;2022-11-20T04:22:00;-1.7;77.1
9666;DHT22;4871;52.004;5.924;2022-11-20T04:23:00;-1.6;77.1
9666;DHT22;4871;52.004;5.924;2022-11-20T04:24:00;-1.7;77.2
9666;DHT22;4871;52.004;5.924;2022-11-20T04:25:00;-1.6;77.0
9666;DHT22;4871;52.004;5.924;2022-11-20T04:26:06;-1.7;77.0
9666;DHT22;4871;52.004;5.924;2022-11-20T04:27:00;-1.6;77.1
9666;DHT22;4871;52.004;5.924;2022-11-20T04:28:00;-1.7;76.9
9666;DHT22;4871;52.004;5.924;2022-11-20T04:29:02;-1.6;77.1
9666;DHT22;4871;52.004;5.924;2022-11-20T04:30:00;-1.6;77.2
9666;DHT22;4871;52.004;5.924;2022-11-20T04:31:02;-1.6;77.2
9666;DHT22;4871;52.004;5.924;2022-11-20T04:32:00;-1.7;77.1
9666;DHT22;4871;52.004;5.924;2022-11-20T04:33:00;-1.7;76.8
9666;DHT22;4871;52.004;5.924;2022-11-20T04:34:02;-1.7;76.9
9666;DHT22;4871;52.004;5.924;2022-11-20T04:35:00;-1.7;77.2
9666;DHT22;4871;52.004;5.924;2022-11-20T04:36:01;-1.7;77.1
9666;DHT22;4871;52.004;5.924;2022-11-20T04:37:00;-1.7;77.0
9666;DHT22;4871;52.004;5.924;2022-11-20T04:38:00;-1.7;76.9
9666;DHT22;4871;52.004;5.924;2022-11-20T04:39:02;-1.7;77.1
9666;DHT22;4871;52.004;5.924;2022-11-20T04:40:00;-1.7;77.0
9666;DHT22;4871;52.004;5.924;2022-11-20T04:41:01;-1.7;76.9
9666;DHT22;4871;52.004;5.924;2022-11-20T04:42:10;-1.7;76.9
9666;DHT22;4871;52.004;5.924;2022-11-20T04:43:00;-1.7;76.9
9666;DHT22;4871;52.004;5.924;2022-11-20T04:44:04;-1.7;76.9
9666;DHT22;4871;52.004;5.924;2022-11-20T04:45:00;-1.7;76.8
9666;DHT22;4871;52.004;5.924;2022-11-20T04:46:00;-1.7;76.6
9666;DHT22;4871;52.004;5.924;2022-11-20T04:47:00;-1.7;77.1
9666;DHT22;4871;52.004;5.924;2022-11-20T04:48:00;-1.8;77.0
9666;DHT22;4871;52.004;5.924;2022-11-20T04:49:00;-1.8;77.1
9666;DHT22;4871;52.004;5.924;2022-11-20T04:50:00;-1.8;77.0
9666;DHT22;4871;52.004;5.924;2022-11-20T04:51:03;-1.8;76.9
9666;DHT22;4871;52.004;5.924;2022-11-20T04:52:00;-1.8;77.2
9666;DHT22;4871;52.004;5.924;2022-11-20T04:53:00;-1.8;77.1
9666;DHT22;4871;52.004;5.924;2022-11-20T04:54:00;-1.7;76.9
9666;DHT22;4871;52.004;5.924;2022-11-20T04:55:00;-1.8;77.0
9666;DHT22;4871;52.004;5.924;2022-11-20T04:56:01;-1.8;77.1
9666;DHT22;4871;52.004;5.924;2022-11-20T04:57:00;-1.8;77.0
9666;DHT22;4871;52.004;5.924;2022-11-20T04:58:00;-1.8;77.0
9666;DHT22;4871;52.004;5.924;2022-11-20T04:59:01;-1.8;77.0
9666;DHT22;4871;52.004;5.924;2022-11-20T05:00:00;-1.8;76.9
9666;DHT22;4871;52.004;5.924;2022-11-20T05:01:00;-1.8;76.8
9666;DHT22;4871;52.004;5.924;2022-11-20T05:02:00;-1.8;76.9
9666;DHT22;4871;52.004;5.924;2022-11-20T05:03:00;-1.8;77.1
9666;DHT22;4871;52.004;5.924;2022-11-20T05:04:00;-1.8;77.0
9666;DHT22;4871;52.004;5.924;2022-11-20T05:05:00;-1.8;77.0
9666;DHT22;4871;52.004;5.924;2022-11-20T05:06:01;-1.8;77.0
9666;DHT22;4871;52.004;5.924;2022-11-20T05:07:00;-1.8;77.1
9666;DHT22;4871;52.004;5.924;2022-11-20T05:08:00;-1.9;76.8
9666;DHT22;4871;52.004;5.924;2022-11-20T05:09:00;-1.8;76.9
9666;DHT22;4871;52.004;5.924;2022-11-20T05:10:00;-1.8;77.0
9666;DHT22;4871;52.004;5.924;2022-11-20T05:11:03;-1.8;77.2
9666;DHT22;4871;52.004;5.924;2022-11-20T05:12:00;-1.9;77.1
9666;DHT22;4871;52.004;5.924;2022-11-20T05:13:00;-1.9;77.0
9666;DHT22;4871;52.004;5.924;2022-11-20T05:14:00;-1.9;77.1
9666;DHT22;4871;52.004;5.924;2022-11-20T05:15:00;-1.8;77.0
9666;DHT22;4871;52.004;5.924;2022-11-20T05:16:02;-1.9;77.0
9666;DHT22;4871;52.004;5.924;2022-11-20T05:17:00;-1.8;77.2
9666;DHT22;4871;52.004;5.924;2022-11-20T05:18:00;-1.8;76.8
9666;DHT22;4871;52.004;5.924;2022-11-20T05:19:00;-1.9;77.2
9666;DHT22;4871;52.004;5.924;2022-11-20T05:20:00;-1.9;76.8
9666;DHT22;4871;52.004;5.924;2022-11-20T05:21:00;-1.9;76.9
9666;DHT22;4871;52.004;5.924;2022-11-20T05:22:00;-1.8;76.9
9666;DHT22;4871;52.004;5.924;2022-11-20T05:23:00;-1.9;76.9
9666;DHT22;4871;52.004;5.924;2022-11-20T05:24:00;-1.9;77.0
9666;DHT22;4871;52.004;5.924;2022-11-20T05:25:00;-1.9;76.9
9666;DHT22;4871;52.004;5.924;2022-11-20T05:26:01;-1.9;77.2
9666;DHT22;4871;52.004;5.924;2022-11-20T05:27:00;-1.9;77.0
9666;DHT22;4871;52.004;5.924;2022-11-20T05:28:00;-1.9;77.1
9666;DHT22;4871;52.004;5.924;2022-11-20T05:29:00;-2.0;77.0
9666;DHT22;4871;52.004;5.924;2022-11-20T05:30:00;-2.0;77.2
9666;DHT22;4871;52.004;5.924;2022-11-20T05:31:05;-2.0;77.2
9666;DHT22;4871;52.004;5.924;2022-11-20T05:32:00;-2.0;77.0
9666;DHT22;4871;52.004;5.924;2022-11-20T05:33:00;-2.0;77.3
9666;DHT22;4871;52.004;5.924;2022-11-20T05:34:00;-1.9;77.1
9666;DHT22;4871;52.004;5.924;2022-11-20T05:35:00;-1.9;76.8
9666;DHT22;4871;52.004;5.924;2022-11-20T05:36:00;-2.0;77.2
9666;DHT22;4871;52.004;5.924;2022-11-20T05:37:00;-2.0;77.0
9666;DHT22;4871;52.004;5.924;2022-11-20T05:38:00;-1.9;76.9
9666;DHT22;4871;52.004;5.924;2022-11-20T05:39:00;-1.9;76.9
9666;DHT22;4871;52.004;5.924;2022-11-20T05:40:00;-1.9;76.9
9666;DHT22;4871;52.004;5.924;2022-11-20T05:41:04;-2.0;76.8
9666;DHT22;4871;52.004;5.924;2022-11-20T05:42:10;-2.0;77.2
9666;DHT22;4871;52.004;5.924;2022-11-20T05:43:00;-2.0;76.9
9666;DHT22;4871;52.004;5.924;2022-11-20T05:44:00;-2.0;77.1
9666;DHT22;4871;52.004;5.924;2022-11-20T05:45:01;-2.0;76.8
9666;DHT22;4871;52.004;5.924;2022-11-20T05:46:00;-2.0;77.2
9666;DHT22;4871;52.004;5.924;2022-11-20T05:47:00;-2.0;77.0
9666;DHT22;4871;52.004;5.924;2022-11-20T05:48:00;-2.0;77.0
9666;DHT22;4871;52.004;5.924;2022-11-20T05:49:00;-2.0;76.8
9666;DHT22;4871;52.004;5.924;2022-11-20T05:50:00;-2.0;76.9
9666;DHT22;4871;52.004;5.924;2022-11-20T05:51:01;-2.0;77.0
9666;DHT22;4871;52.004;5.924;2022-11-20T05:52:00;-2.0;76.8
9666;DHT22;4871;52.004;5.924;2022-11-20T05:53:00;-2.0;77.0
9666;DHT22;4871;52.004;5.924;2022-11-20T05:54:00;-2.0;76.9
9666;DHT22;4871;52.004;5.924;2022-11-20T05:55:00;-2.0;77.0
9666;DHT22;4871;52.004;5.924;2022-11-20T05:56:02;-2.0;76.9
9666;DHT22;4871;52.004;5.924;2022-11-20T05:57:00;-2.0;76.6
9666;DHT22;4871;52.004;5.924;2022-11-20T05:58:00;-2.0;77.0
9666;DHT22;4871;52.004;5.924;2022-11-20T05:59:00;-2.0;76.9
9666;DHT22;4871;52.004;5.924;2022-11-20T06:00:00;-2.0;76.8
9666;DHT22;4871;52.004;5.924;2022-11-20T06:01:04;-2.1;77.0
9666;DHT22;4871;52.004;5.924;2022-11-20T06:02:00;-2.1;76.9
9666;DHT22;4871;52.004;5.924;2022-11-20T06:03:00;-2.1;76.9
9666;DHT22;4871;52.004;5.924;2022-11-20T06:04:00;-2.1;76.9
9666;DHT22;4871;52.004;5.924;2022-11-20T06:05:00;-2.1;77.0
9666;DHT22;4871;52.004;5.924;2022-11-20T06:06:00;-2.1;77.3
9666;DHT22;4871;52.004;5.924;2022-11-20T06:07:00;-2.1;76.9
9666;DHT22;4871;52.004;5.924;2022-11-20T06:08:00;-2.1;76.9
9666;DHT22;4871;52.004;5.924;2022-11-20T06:09:00;-2.1;77.0
9666;DHT22;4871;52.004;5.924;2022-11-20T06:10:00;-2.1;76.9
9666;DHT22;4871;52.004;5.924;2022-11-20T06:11:08;-2.1;77.1
9666;DHT22;4871;52.004;5.924;2022-11-20T06:12:00;-2.1;77.1
9666;DHT22;4871;52.004;5.924;2022-11-20T06:13:00;-2.1;77.0
9666;DHT22;4871;52.004;5.924;2022-11-20T06:14:00;-2.1;77.2
9666;DHT22;4871;52.004;5.924;2022-11-20T06:15:00;-2.1;77.1
9666;DHT22;4871;52.004;5.924;2022-11-20T06:16:00;-2.1;77.0
9666;DHT22;4871;52.004;5.924;2022-11-20T06:17:00;-2.1;76.8
9666;DHT22;4871;52.004;5.924;2022-11-20T06:18:00;-2.1;77.0
9666;DHT22;4871;52.004;5.924;2022-11-20T06:19:00;-2.1;76.9
9666;DHT22;4871;52.004;5.924;2022-11-20T06:20:00;-2.1;76.8
9666;DHT22;4871;52.004;5.924;2022-11-20T06:21:09;-2.1;76.9
9666;DHT22;4871;52.004;5.924;2022-11-20T06:22:00;-2.1;76.9
9666;DHT22;4871;52.004;5.924;2022-11-20T06:23:00;-2.2;77.0
9666;DHT22;4871;52.004;5.924;2022-11-20T06:24:00;-2.2;77.0
9666;DHT22;4871;52.004;5.924;2022-11-20T06:25:00;-2.1;77.0
9666;DHT22;4871;52.004;5.924;2022-11-20T06:26:03;-2.2;76.6
9666;DHT22;4871;52.004;5.924;2022-11-20T06:27:00;-2.2;77.1
9666;DHT22;4871;52.004;5.924;2022-11-20T06:28:00;-2.2;77.1
9666;DHT22;4871;52.004;5.924;2022-11-20T06:29:00;-2.2;77.0
9666;DHT22;4871;52.004;5.924;2022-11-20T06:30:00;-2.2;77.0
9666;DHT22;4871;52.004;5.924;2022-11-20T06:31:00;-2.2;76.8
9666;DHT22;4871;52.004;5.924;2022-11-20T06:32:00;-2.2;77.0
9666;DHT22;4871;52.004;5.924;2022-11-20T06:33:00;-2.2;77.1
9666;DHT22;4871;52.004;5.924;2022-11-20T06:34:01;-2.2;76.9
9666;DHT22;4871;52.004;5.924;2022-11-20T06:35:00;-2.2;76.9
9666;DHT22;4871;52.004;5.924;2022-11-20T06:36:01;-2.3;77.1
9666;DHT22;4871;52.004;5.924;2022-11-20T06:37:00;-2.2;77.0
9666;DHT22;4871;52.004;5.924;2022-11-20T06:38:00;-2.2;76.8
9666;DHT22;4871;52.004;5.924;2022-11-20T06:39:00;-2.2;76.7
9666;DHT22;4871;52.004;5.924;2022-11-20T06:40:00;-2.2;76.9
9666;DHT22;4871;52.004;5.924;2022-11-20T06:41:00;-2.2;77.0
9666;DHT22;4871;52.004;5.924;2022-11-20T06:42:00;-2.3;77.1
9666;DHT22;4871;52.004;5.924;2022-11-20T06:43:00;-2.2;76.9
9666;DHT22;4871;52.004;5.924;2022-11-20T06:44:00;-2.3;76.7
9666;DHT22;4871;52.004;5.924;2022-11-20T06:45:00;-2.3;77.1
9666;DHT22;4871;52.004;5.924;2022-11-20T06:46:00;-2.2;76.9